Time;durP1;ratioP1;P1;durP2;ratioP2;P2;SDS_P1;SDS_P2;PMS_P1;PMS_P2;Temp;Humidity;BMP_temperature;BMP_pressure;BME280_temperature;BME280_humidity;BME280_pressure;Samples;Min_cycle;Max_cycle;Signal;HPM_P1;HPM_P2
2022/09/06 00:03:51;;;;;;;;;;;;;;;20.87;54.85938;101680.8;;;;-76
2022/09/06 00:08:49;;;;;;;;;;;;;;;20.82;55.73242;101697;;;;-77
2022/09/06 00:13:48;;;;;;;;;;;;;;;20.81;55.48145;101690.9;;;;-75
2022/09/06 00:18:18;;;;;;;5.7;2.3;;;;;;;;;;;;;-76
2022/09/06 00:18:49;;;;;;;;;;;;;;;20.79;55.74121;101691.9;;;;-76
2022/09/06 00:23:48;;;;;;;;;;;;;;;20.77;56.44531;101687;;;;-76
2022/09/06 00:28:48;;;;;;;;;;;;;;;20.75;56.21484;101675.9;;;;-75
2022/09/06 00:33:48;;;;;;;;;;;;;;;20.74;56.04199;101694.9;;;;-76
2022/09/06 00:38:48;;;;;;;;;;;;;;;20.72;56.1084;101688.3;;;;-76
2022/09/06 00:43:48;;;;;;;;;;;;;;;20.69;56.27539;101676.4;;;;-76
2022/09/06 00:48:21;;;;;;;5.1;2.3;;;;;;;;;;;;;-75
2022/09/06 00:48:50;;;;;;;;;;;;;;;20.65;56.85156;101667.3;;;;-76
2022/09/06 00:53:48;;;;;;;;;;;;;;;20.63;56.19824;101661.3;;;;-76
2022/09/06 00:58:49;;;;;;;;;;;;;;;20.6;56.18457;101657.9;;;;-77
2022/09/06 01:03:48;;;;;;;;;;;;;;;20.59;56.12598;101654.9;;;;-76
2022/09/06 01:08:58;;;;;;;;;;;;;;;20.56;55.93945;101650;;;;-75
2022/09/06 01:13:52;;;;;;;;;;;;;;;20.53;55.82031;101653.1;;;;-76
2022/09/06 01:18:31;;;;;;;6.5;2.1;;;;;;;;;;;;;-76
2022/09/06 01:18:58;;;;;;;;;;;;;;;20.49;55.8291;101660.1;;;;-76
2022/09/06 01:24:12;;;;;;;;;;;;;;;20.46;55.79102;101675.5;;;;-76
2022/09/06 01:28:49;;;;;;;;;;;;;;;20.45;55.95996;101703.8;;;;-77
2022/09/06 01:33:51;;;;;;;;;;;;;;;20.4;56.58105;101693.2;;;;-76
2022/09/06 01:38:48;;;;;;;;;;;;;;;20.34;56.88184;101662;;;;-76
2022/09/06 01:43:49;;;;;;;;;;;;;;;20.33;56.94727;101643.7;;;;-77
2022/09/06 01:48:32;;;;;;;4.2;2.3;;;;;;;;;;;;;-75
2022/09/06 01:48:57;;;;;;;;;;;;;;;20.32;56.82129;101617.9;;;;-74
2022/09/06 01:53:58;;;;;;;;;;;;;;;20.31;56.62598;101615.1;;;;-76
2022/09/06 01:59:04;;;;;;;;;;;;;;;20.29;56.50977;101616.7;;;;-78
2022/09/06 02:03:54;;;;;;;;;;;;;;;20.27;56.23438;101619.8;;;;-75
2022/09/06 02:08:50;;;;;;;;;;;;;;;20.24;55.99121;101629.3;;;;-75
2022/09/06 02:13:53;;;;;;;;;;;;;;;20.24;56.40137;101622.8;;;;-75
2022/09/06 02:18:32;;;;;;;3.7;2.1;;;;;;;;;;;;;-76
2022/09/06 02:18:54;;;;;;;;;;;;;;;20.2;56.13379;101613;;;;-74
2022/09/06 02:23:49;;;;;;;;;;;;;;;20.19;56.31348;101601.1;;;;-75
2022/09/06 02:28:48;;;;;;;;;;;;;;;20.16;56.09375;101599.4;;;;-75
2022/09/06 02:33:49;;;;;;;;;;;;;;;20.12;55.9541;101596;;;;-76
2022/09/06 02:38:49;;;;;;;;;;;;;;;20.1;55.81348;101591.1;;;;-76
2022/09/06 02:43:48;;;;;;;;;;;;;;;20.07;55.81055;101584.9;;;;-76
2022/09/06 02:48:31;;;;;;;4;2;;;;;;;;;;;;;-77
2022/09/06 02:48:48;;;;;;;;;;;;;;;20.04;55.77148;101594.6;;;;-76
2022/09/06 02:53:48;;;;;;;;;;;;;;;20.01;55.68945;101597.4;;;;-75
2022/09/06 02:58:51;;;;;;;;;;;;;;;19.97;55.57031;101594;;;;-75
2022/09/06 03:03:50;;;;;;;;;;;;;;;19.95;55.68066;101592.6;;;;-76
2022/09/06 03:08:48;;;;;;;;;;;;;;;19.93;55.62109;101590.3;;;;-77
2022/09/06 03:13:49;;;;;;;;;;;;;;;19.89;55.55957;101587.2;;;;-76
2022/09/06 03:18:33;;;;;;;4.5;2;;;;;;;;;;;;;-78
2022/09/06 03:18:49;;;;;;;;;;;;;;;19.87;55.47754;101579;;;;-74
2022/09/06 03:23:49;;;;;;;;;;;;;;;19.86;55.40723;101573.6;;;;-75
2022/09/06 03:28:49;;;;;;;;;;;;;;;19.84;55.42773;101567.5;;;;-77
2022/09/06 03:33:48;;;;;;;;;;;;;;;19.84;55.41602;101571.5;;;;-76
2022/09/06 03:38:49;;;;;;;;;;;;;;;19.84;55.95313;101585;;;;-76
2022/09/06 03:43:48;;;;;;;;;;;;;;;19.83;56.51953;101589.1;;;;-76
2022/09/06 03:48:36;;;;;;;4.1;2.3;;;;;;;;;;;;;-75
2022/09/06 03:48:49;;;;;;;;;;;;;;;19.82;56.33594;101591.8;;;;-74
2022/09/06 03:53:48;;;;;;;;;;;;;;;19.84;56.53223;101590.7;;;;-76
2022/09/06 03:58:48;;;;;;;;;;;;;;;19.82;55.89258;101595.8;;;;-75
2022/09/06 04:03:48;;;;;;;;;;;;;;;19.81;55.70996;101607.9;;;;-75
2022/09/06 04:08:48;;;;;;;;;;;;;;;19.79;55.37695;101611.5;;;;-76
2022/09/06 04:13:48;;;;;;;;;;;;;;;19.77;55.43164;101609.4;;;;-76
2022/09/06 04:18:44;;;;;;;4.1;2;;;;;;;;;;;;;-75
2022/09/06 04:18:53;;;;;;;;;;;;;;;19.75;55.34863;101604.8;;;;-74
2022/09/06 04:23:48;;;;;;;;;;;;;;;19.73;55.29004;101599.4;;;;-75
2022/09/06 04:28:50;;;;;;;;;;;;;;;19.71;55.35547;101598.1;;;;-76
2022/09/06 04:33:48;;;;;;;;;;;;;;;19.69;55.36426;101607.6;;;;-77
2022/09/06 04:38:51;;;;;;;;;;;;;;;19.66;55.57617;101630.2;;;;-76
2022/09/06 04:43:50;;;;;;;;;;;;;;;19.61;55.79688;101632.1;;;;-76
2022/09/06 04:48:40;;;;;;;5.2;2.6;;;;;;;;;;;;;-76
2022/09/06 04:48:50;;;;;;;;;;;;;;;19.57;55.78223;101663.3;;;;-74
2022/09/06 04:53:48;;;;;;;;;;;;;;;19.51;56.33105;101663;;;;-76
2022/09/06 04:58:51;;;;;;;;;;;;;;;19.46;56.34668;101661.8;;;;-75
2022/09/06 05:03:48;;;;;;;;;;;;;;;19.39;56.3291;101649.7;;;;-76
2022/09/06 05:08:48;;;;;;;;;;;;;;;19.34;56.53711;101634.9;;;;-77
2022/09/06 05:13:49;;;;;;;;;;;;;;;19.31;56.37402;101623.4;;;;-76
2022/09/06 05:18:43;;;;;;;4.1;2.6;;;;;;;;;;;;;-76
2022/09/06 05:18:53;;;;;;;;;;;;;;;19.27;56.36816;101626.8;;;;-78
2022/09/06 05:23:49;;;;;;;;;;;;;;;19.27;56.32324;101631.8;;;;-77
2022/09/06 05:28:50;;;;;;;;;;;;;;;19.24;56.36621;101633.1;;;;-76
2022/09/06 05:33:48;;;;;;;;;;;;;;;19.24;56.26367;101628.5;;;;-78
2022/09/06 05:38:48;;;;;;;;;;;;;;;19.23;56.1709;101618.4;;;;-78
2022/09/06 05:43:48;;;;;;;;;;;;;;;19.22;56.18066;101601.2;;;;-78
2022/09/06 05:48:45;;;;;;;5.2;2.7;;;;;;;;;;;;;-76
2022/09/06 05:49:06;;;;;;;;;;;;;;;19.23;56.05664;101595.1;;;;-76
2022/09/06 05:53:48;;;;;;;;;;;;;;;19.23;56.0791;101588.5;;;;-76
2022/09/06 05:58:48;;;;;;;;;;;;;;;19.24;56.29688;101579.7;;;;-77
2022/09/06 06:03:53;;;;;;;;;;;;;;;19.27;56.32422;101577;;;;-76
2022/09/06 06:08:53;;;;;;;;;;;;;;;19.32;56.33008;101582.6;;;;-76
2022/09/06 06:13:49;;;;;;;;;;;;;;;19.44;56.46973;101595.7;;;;-76
2022/09/06 06:18:47;;;;;;;5.5;2.8;;;;;;;;;;;;;-76
2022/09/06 06:19:01;;;;;;;;;;;;;;;19.77;55.7959;101588.9;;;;-77
2022/09/06 06:23:49;;;;;;;;;;;;;;;20.26;54.91016;101587.1;;;;-77
2022/09/06 06:28:49;;;;;;;;;;;;;;;20.52;54.36133;101580.8;;;;-80
2022/09/06 06:33:54;;;;;;;;;;;;;;;20.59;54.4043;101579.7;;;;-78
2022/09/06 06:38:51;;;;;;;;;;;;;;;20.57;54.9375;101583.3;;;;-77
2022/09/06 06:43:48;;;;;;;;;;;;;;;20.6;55.05566;101591.1;;;;-78
2022/09/06 06:48:53;;;;;;;;;;;;;;;20.81;54.62598;101593.2;;;;-78
2022/09/06 06:49:03;;;;;;;4.4;2.7;;;;;;;;;;;;;-78
2022/09/06 06:53:50;;;;;;;;;;;;;;;21.15;54.08301;101590.3;;;;-79
2022/09/06 06:58:51;;;;;;;;;;;;;;;21.47;53.64258;101593;;;;-78
2022/09/06 07:03:48;;;;;;;;;;;;;;;21.72;53.50098;101589.4;;;;-80
2022/09/06 07:08:48;;;;;;;;;;;;;;;21.96;53.23145;101587.7;;;;-77
2022/09/06 07:13:48;;;;;;;;;;;;;;;22.2;52.83594;101583.1;;;;-79
2022/09/06 07:18:48;;;;;;;;;;;;;;;22.44;52.69238;101575.2;;;;-79
2022/09/06 07:18:58;;;;;;;5.1;2.9;;;;;;;;;;;;;-79
2022/09/06 07:23:48;;;;;;;;;;;;;;;22.69;52.16016;101575.5;;;;-81
2022/09/06 07:28:49;;;;;;;;;;;;;;;22.92;52.00293;101579.9;;;;-79
2022/09/06 07:33:48;;;;;;;;;;;;;;;23.24;52.00586;101577.7;;;;-80
2022/09/06 07:38:50;;;;;;;;;;;;;;;23.52;51.55469;101575.4;;;;-78
2022/09/06 07:43:48;;;;;;;;;;;;;;;23.86;51.26172;101582.7;;;;-78
2022/09/06 07:48:48;;;;;;;;;;;;;;;24.14;51.06348;101573.4;;;;-79
2022/09/06 07:49:00;;;;;;;4.5;2.9;;;;;;;;;;;;;-79
2022/09/06 07:53:52;;;;;;;;;;;;;;;24.49;50.55078;101569.9;;;;-78
2022/09/06 07:58:52;;;;;;;;;;;;;;;24.87;50.06055;101580.5;;;;-78
2022/09/06 08:03:49;;;;;;;;;;;;;;;25.22;49.47852;101577.4;;;;-79
2022/09/06 08:08:49;;;;;;;;;;;;;;;25.61;48.77051;101581.2;;;;-79
2022/09/06 08:13:51;;;;;;;;;;;;;;;25.85;48.18262;101577.2;;;;-78
2022/09/06 08:18:52;;;;;;;;;;;;;;;26.08;47.84863;101573;;;;-78
2022/09/06 08:19:11;;;;;;;4.6;2.7;;;;;;;;;;;;;-78
2022/09/06 08:23:51;;;;;;;;;;;;;;;26.31;47.33984;101567;;;;-77
2022/09/06 08:28:48;;;;;;;;;;;;;;;26.6;47.01074;101554.9;;;;-78
2022/09/06 08:33:48;;;;;;;;;;;;;;;26.97;46.31934;101545.9;;;;-78
2022/09/06 08:38:48;;;;;;;;;;;;;;;27.28;45.79395;101543.1;;;;-79
2022/09/06 08:43:55;;;;;;;;;;;;;;;27.52;45.23633;101542.5;;;;-78
2022/09/06 08:48:48;;;;;;;;;;;;;;;27.76;44.92383;101548.6;;;;-79
2022/09/06 08:49:06;;;;;;;5.5;3;;;;;;;;;;;;;-77
2022/09/06 08:53:49;;;;;;;;;;;;;;;27.95;44.72168;101554.5;;;;-78
2022/09/06 08:58:58;;;;;;;;;;;;;;;28.23;44.29492;101548;;;;-78
2022/09/06 09:03:49;;;;;;;;;;;;;;;28.2;44.09473;101543.4;;;;-79
2022/09/06 09:08:52;;;;;;;;;;;;;;;28.17;44.39453;101552.1;;;;-78
2022/09/06 09:13:53;;;;;;;;;;;;;;;28.4;44.5332;101551.4;;;;-78
2022/09/06 09:18:53;;;;;;;;;;;;;;;28.68;44.1416;101549;;;;-79
2022/09/06 09:19:08;;;;;;;5;3.2;;;;;;;;;;;;;-77
2022/09/06 09:23:52;;;;;;;;;;;;;;;28.96;44.00586;101538.7;;;;-78
2022/09/06 09:28:59;;;;;;;;;;;;;;;29.27;43.40527;101526.4;;;;-78
2022/09/06 09:33:48;;;;;;;;;;;;;;;29.56;42.89551;101533;;;;-78
2022/09/06 09:38:51;;;;;;;;;;;;;;;29.7;42.6875;101528.4;;;;-76
2022/09/06 09:43:59;;;;;;;;;;;;;;;29.74;42.36328;101523.1;;;;-78
2022/09/06 09:49:00;;;;;;;;;;;;;;;29.82;42.94336;101523.3;;;;-78
2022/09/06 09:49:15;;;;;;;5.6;3.4;;;;;;;;;;;;;-78
2022/09/06 09:53:53;;;;;;;;;;;;;;;29.93;42.08887;101516.5;;;;-78
2022/09/06 09:58:48;;;;;;;;;;;;;;;29.98;42.29199;101517.2;;;;-78
2022/09/06 10:03:48;;;;;;;;;;;;;;;30.14;42.1084;101523.8;;;;-77
2022/09/06 10:08:48;;;;;;;;;;;;;;;30.34;41.26074;101528.9;;;;-78
2022/09/06 10:13:48;;;;;;;;;;;;;;;30.34;41.43652;101527.3;;;;-78
2022/09/06 10:18:51;;;;;;;;;;;;;;;30.35;41.32129;101523.2;;;;-79
2022/09/06 10:19:24;;;;;;;3.8;2.4;;;;;;;;;;;;;-78
2022/09/06 10:24:02;;;;;;;;;;;;;;;30.5;41.20508;101522.4;;;;-78
2022/09/06 10:28:51;;;;;;;;;;;;;;;30.47;40.78027;101529.5;;;;-79
2022/09/06 10:33:55;;;;;;;;;;;;;;;30.46;40.9668;101537.7;;;;-77
2022/09/06 10:38:55;;;;;;;;;;;;;;;30.4;41.37207;101539.1;;;;-76
2022/09/06 10:43:53;;;;;;;;;;;;;;;30.62;41.80176;101545;;;;-78
2022/09/06 10:48:48;;;;;;;;;;;;;;;30.93;40.91602;101556.1;;;;-76
2022/09/06 10:49:21;;;;;;;4;2.5;;;;;;;;;;;;;-77
2022/09/06 10:53:51;;;;;;;;;;;;;;;31.04;40.74902;101561.3;;;;-80
2022/09/06 10:58:53;;;;;;;;;;;;;;;31.16;40.80762;101556.5;;;;-78
2022/09/06 11:03:48;;;;;;;;;;;;;;;31.29;40.80664;101559;;;;-78
2022/09/06 11:08:52;;;;;;;;;;;;;;;31.44;40.69141;101564.5;;;;-77
2022/09/06 11:13:48;;;;;;;;;;;;;;;31.69;40.97168;101577.9;;;;-78
2022/09/06 11:18:51;;;;;;;;;;;;;;;31.96;40.96094;101579.9;;;;-78
2022/09/06 11:19:29;;;;;;;3.8;2;;;;;;;;;;;;;-78
2022/09/06 11:23:55;;;;;;;;;;;;;;;32.14;40.62402;101576;;;;-79
2022/09/06 11:28:50;;;;;;;;;;;;;;;32.42;40.67285;101573.2;;;;-78
2022/09/06 11:33:48;;;;;;;;;;;;;;;32.8;40.54297;101570.7;;;;-78
2022/09/06 11:38:56;;;;;;;;;;;;;;;33.04;39.26758;101567.8;;;;-78
2022/09/06 11:43:50;;;;;;;;;;;;;;;33.17;39.53809;101571.6;;;;-79
2022/09/06 11:49:06;;;;;;;;;;;;;;;33.29;39.5957;101568.3;;;;-76
2022/09/06 11:49:41;;;;;;;4.5;2.3;;;;;;;;;;;;;-77
2022/09/06 11:54:00;;;;;;;;;;;;;;;33.35;39.11816;101578.1;;;;-76
2022/09/06 11:58:54;;;;;;;;;;;;;;;33.47;39.46973;101566.7;;;;-78
2022/09/06 12:04:02;;;;;;;;;;;;;;;33.57;39.52539;101575.8;;;;-77
2022/09/06 12:08:48;;;;;;;;;;;;;;;33.59;39.09082;101570.5;;;;-79
2022/09/06 12:13:51;;;;;;;;;;;;;;;33.61;39.16309;101572.4;;;;-78
2022/09/06 12:19:01;;;;;;;;;;;;;;;33.67;39.4043;101575.1;;;;-75
2022/09/06 12:19:50;;;;;;;3.4;1.8;;;;;;;;;;;;;-78
2022/09/06 12:23:49;;;;;;;;;;;;;;;33.65;39.61426;101573;;;;-79
2022/09/06 12:28:50;;;;;;;;;;;;;;;33.65;39.42578;101575.4;;;;-79
2022/09/06 12:33:50;;;;;;;;;;;;;;;33.66;38.99023;101570.7;;;;-77
2022/09/06 12:39:04;;;;;;;;;;;;;;;33.76;38.91602;101563.2;;;;-79
2022/09/06 12:43:48;;;;;;;;;;;;;;;33.88;38.54883;101566.5;;;;-78
2022/09/06 12:49:01;;;;;;;;;;;;;;;33.92;38.34082;101563.5;;;;-76
2022/09/06 12:49:41;;;;;;;3.3;1.8;;;;;;;;;;;;;-79
2022/09/06 12:53:57;;;;;;;;;;;;;;;33.95;37.90625;101570.1;;;;-77
2022/09/06 12:58:48;;;;;;;;;;;;;;;33.88;37.9707;101560.6;;;;-77
2022/09/06 13:03:59;;;;;;;;;;;;;;;33.95;38.10645;101558.5;;;;-76
2022/09/06 13:08:50;;;;;;;;;;;;;;;33.96;37.70508;101547.2;;;;-77
2022/09/06 13:13:53;;;;;;;;;;;;;;;34.06;37.2168;101534.2;;;;-79
2022/09/06 13:18:48;;;;;;;;;;;;;;;34.17;37.49805;101527.4;;;;-78
2022/09/06 13:19:49;;;;;;;3.3;1.5;;;;;;;;;;;;;-76
2022/09/06 13:23:49;;;;;;;;;;;;;;;34.2;37.66602;101536.2;;;;-76
2022/09/06 13:28:50;;;;;;;;;;;;;;;34.32;37.75879;101538.5;;;;-78
2022/09/06 13:33:58;;;;;;;;;;;;;;;34.44;37.2959;101524.5;;;;-78
2022/09/06 13:38:49;;;;;;;;;;;;;;;34.5;37.37109;101513;;;;-78
2022/09/06 13:43:49;;;;;;;;;;;;;;;34.54;37.33984;101513.7;;;;-78
2022/09/06 13:48:48;;;;;;;;;;;;;;;34.48;37.53516;101524.8;;;;-79
2022/09/06 13:53:48;;;;;;;;;;;;;;;34.39;37.43359;101518.4;;;;-79
2022/09/06 13:58:48;;;;;;;;;;;;;;;34.4;37.2334;101513;;;;-80
2022/09/06 14:03:49;;;;;;;;;;;;;;;34.44;37.2373;101504.3;;;;-78
2022/09/06 14:08:48;;;;;;;;;;;;;;;34.43;37.07031;101518.5;;;;-79
2022/09/06 14:13:48;;;;;;;;;;;;;;;34.25;37.12695;101522.2;;;;-78
2022/09/06 14:18:48;;;;;;;;;;;;;;;34.12;36.98633;101518.6;;;;-78
2022/09/06 14:19:59;;;;;;;3.5;1.4;;;;;;;;;;;;;-78
2022/09/06 14:23:50;;;;;;;;;;;;;;;34.06;36.94531;101526.5;;;;-78
2022/09/06 14:28:48;;;;;;;;;;;;;;;34.03;36.69531;101528.3;;;;-77
2022/09/06 14:33:48;;;;;;;;;;;;;;;33.84;36.83398;101534.5;;;;-78
2022/09/06 14:38:48;;;;;;;;;;;;;;;33.63;37.08789;101524.1;;;;-80
2022/09/06 14:43:51;;;;;;;;;;;;;;;33.5;37.21875;101523.3;;;;-80
2022/09/06 14:48:48;;;;;;;;;;;;;;;33.32;37.12207;101512.6;;;;-78
2022/09/06 14:50:03;;;;;;;3;1.6;;;;;;;;;;;;;-77
2022/09/06 14:53:48;;;;;;;;;;;;;;;33.2;37.27734;101502.4;;;;-78
2022/09/06 14:58:53;;;;;;;;;;;;;;;33.18;37.13477;101503.3;;;;-78
2022/09/06 15:03:51;;;;;;;;;;;;;;;33.18;37.09863;101497;;;;-79
2022/09/06 15:08:57;;;;;;;;;;;;;;;32.99;37.13086;101499;;;;-79
2022/09/06 15:13:48;;;;;;;;;;;;;;;32.67;37.57617;101506.8;;;;-79
2022/09/06 15:18:48;;;;;;;;;;;;;;;32.38;37.91699;101501.7;;;;-78
2022/09/06 15:20:08;;;;;;;3.3;1.7;;;;;;;;;;;;;-78
2022/09/06 15:23:51;;;;;;;;;;;;;;;32.21;37.89063;101505.5;;;;-79
2022/09/06 15:28:57;;;;;;;;;;;;;;;32.13;37.54395;101503.4;;;;-78
2022/09/06 15:33:48;;;;;;;;;;;;;;;32.09;37.46875;101496.8;;;;-78
2022/09/06 15:38:51;;;;;;;;;;;;;;;32.05;37.51367;101498.4;;;;-77
2022/09/06 15:43:49;;;;;;;;;;;;;;;32.02;37.38086;101492.2;;;;-77
2022/09/06 15:48:50;;;;;;;;;;;;;;;31.95;37.52734;101489.5;;;;-76
2022/09/06 15:50:16;;;;;;;2.8;1.4;;;;;;;;;;;;;-77
2022/09/06 15:53:51;;;;;;;;;;;;;;;31.83;37.69434;101483.8;;;;-75
2022/09/06 15:58:49;;;;;;;;;;;;;;;31.76;37.6543;101478.6;;;;-76
2022/09/06 16:03:49;;;;;;;;;;;;;;;31.76;37.6416;101468.7;;;;-75
2022/09/06 16:08:48;;;;;;;;;;;;;;;31.77;37.62012;101467;;;;-76
2022/09/06 16:13:48;;;;;;;;;;;;;;;31.78;37.63281;101469.8;;;;-75
2022/09/06 16:18:50;;;;;;;;;;;;;;;31.75;37.66504;101457.9;;;;-79
2022/09/06 16:20:18;;;;;;;3.7;1.3;;;;;;;;;;;;;-77
2022/09/06 16:23:50;;;;;;;;;;;;;;;31.61;37.81836;101459.4;;;;-76
2022/09/06 16:28:50;;;;;;;;;;;;;;;31.36;38.12598;101454.1;;;;-76
2022/09/06 16:33:49;;;;;;;;;;;;;;;31.07;38.42969;101447.4;;;;-78
2022/09/06 16:38:50;;;;;;;;;;;;;;;30.8;38.6543;101451.7;;;;-76
2022/09/06 16:43:49;;;;;;;;;;;;;;;30.56;38.78516;101453.1;;;;-76
2022/09/06 16:48:53;;;;;;;;;;;;;;;30.29;38.92578;101456.1;;;;-76
2022/09/06 16:50:26;;;;;;;2.2;1.1;;;;;;;;;;;;;-75
2022/09/06 16:53:49;;;;;;;;;;;;;;;30.02;39.00781;101454.9;;;;-78
2022/09/06 16:58:52;;;;;;;;;;;;;;;29.77;39.20898;101453.6;;;;-75
2022/09/06 17:03:48;;;;;;;;;;;;;;;29.54;39.42383;101457.4;;;;-76
2022/09/06 17:08:48;;;;;;;;;;;;;;;29.31;39.29883;101457.8;;;;-76
2022/09/06 17:13:49;;;;;;;;;;;;;;;29.07;39.41797;101453;;;;-74
2022/09/06 17:18:48;;;;;;;;;;;;;;;28.82;39.2793;101432.6;;;;-75
2022/09/06 17:20:27;;;;;;;2.6;1.3;;;;;;;;;;;;;-76
2022/09/06 17:23:48;;;;;;;;;;;;;;;28.59;39.29492;101440.6;;;;-76
2022/09/06 17:28:48;;;;;;;;;;;;;;;28.38;39.28809;101449.4;;;;-75
2022/09/06 17:33:48;;;;;;;;;;;;;;;28.16;39.37402;101448.8;;;;-75
2022/09/06 17:38:49;;;;;;;;;;;;;;;27.95;39.28516;101449.3;;;;-77
2022/09/06 17:43:49;;;;;;;;;;;;;;;27.75;39.31445;101449;;;;-77
2022/09/06 17:48:50;;;;;;;;;;;;;;;27.54;39.29688;101441.6;;;;-78
2022/09/06 17:50:32;;;;;;;2.1;1;;;;;;;;;;;;;-77
2022/09/06 17:53:48;;;;;;;;;;;;;;;27.37;39.37402;101437.5;;;;-77
2022/09/06 17:58:54;;;;;;;;;;;;;;;27.18;39.43848;101438.3;;;;-78
2022/09/06 18:03:49;;;;;;;;;;;;;;;27;39.50488;101446.9;;;;-78
2022/09/06 18:08:49;;;;;;;;;;;;;;;26.8;39.56934;101443.1;;;;-79
2022/09/06 18:13:49;;;;;;;;;;;;;;;26.62;39.75098;101454.3;;;;-78
2022/09/06 18:18:53;;;;;;;;;;;;;;;26.44;39.87402;101448.5;;;;-78
2022/09/06 18:20:35;;;;;;;2.8;1.3;;;;;;;;;;;;;-78
2022/09/06 18:23:48;;;;;;;;;;;;;;;26.24;39.95996;101447.1;;;;-75
2022/09/06 18:28:48;;;;;;;;;;;;;;;26.06;40.19922;101446.4;;;;-77
2022/09/06 18:33:48;;;;;;;;;;;;;;;25.87;40.47363;101442.2;;;;-77
2022/09/06 18:38:48;;;;;;;;;;;;;;;25.7;40.71289;101447.9;;;;-76
2022/09/06 18:43:48;;;;;;;;;;;;;;;25.55;40.97754;101449.3;;;;-77
2022/09/06 18:48:48;;;;;;;;;;;;;;;25.41;41.18359;101446.2;;;;-75
2022/09/06 18:50:39;;;;;;;2.9;1.3;;;;;;;;;;;;;-78
2022/09/06 18:53:51;;;;;;;;;;;;;;;25.26;41.35547;101439.8;;;;-76
2022/09/06 18:58:50;;;;;;;;;;;;;;;25.14;41.53027;101436.7;;;;-75
2022/09/06 19:03:48;;;;;;;;;;;;;;;24.99;41.64258;101439.9;;;;-74
2022/09/06 19:08:50;;;;;;;;;;;;;;;24.87;41.89746;101452.3;;;;-77
2022/09/06 19:13:49;;;;;;;;;;;;;;;24.73;42.19727;101456.5;;;;-75
2022/09/06 19:18:53;;;;;;;;;;;;;;;24.6;42.41504;101448.4;;;;-75
2022/09/06 19:20:43;;;;;;;3.2;1.1;;;;;;;;;;;;;-77
2022/09/06 19:23:49;;;;;;;;;;;;;;;24.46;42.70313;101433.2;;;;-76
2022/09/06 19:28:50;;;;;;;;;;;;;;;24.33;43.03711;101424.5;;;;-78
2022/09/06 19:33:48;;;;;;;;;;;;;;;24.21;43.30176;101413;;;;-77
2022/09/06 19:38:48;;;;;;;;;;;;;;;24.09;43.45215;101401.5;;;;-75
2022/09/06 19:43:53;;;;;;;;;;;;;;;23.97;43.75195;101396.5;;;;-77
2022/09/06 19:48:50;;;;;;;;;;;;;;;23.85;44.02832;101385.7;;;;-78
2022/09/06 19:50:48;;;;;;;3.5;1.4;;;;;;;;;;;;;-76
2022/09/06 19:53:51;;;;;;;;;;;;;;;23.73;44.30469;101377.3;;;;-76
2022/09/06 19:58:49;;;;;;;;;;;;;;;23.61;44.4082;101366.6;;;;-76
2022/09/06 20:03:48;;;;;;;;;;;;;;;23.5;44.61621;101354.9;;;;-74
2022/09/06 20:08:51;;;;;;;;;;;;;;;23.4;44.84863;101352.2;;;;-74
2022/09/06 20:13:48;;;;;;;;;;;;;;;23.3;45.1709;101342.8;;;;-76
2022/09/06 20:18:48;;;;;;;;;;;;;;;23.21;45.3125;101324.2;;;;-77
2022/09/06 20:20:50;;;;;;;3.2;1.3;;;;;;;;;;;;;-76
2022/09/06 20:23:51;;;;;;;;;;;;;;;23.13;45.5127;101322;;;;-76
2022/09/06 20:28:50;;;;;;;;;;;;;;;23.06;45.5498;101322.1;;;;-74
2022/09/06 20:33:48;;;;;;;;;;;;;;;22.98;45.65723;101302.7;;;;-76
2022/09/06 20:38:50;;;;;;;;;;;;;;;22.9;45.75293;101296.8;;;;-76
2022/09/06 20:43:48;;;;;;;;;;;;;;;22.84;45.81543;101282.7;;;;-74
2022/09/06 20:48:49;;;;;;;;;;;;;;;22.78;45.79785;101284.5;;;;-75
2022/09/06 20:51:00;;;;;;;3.7;1.4;;;;;;;;;;;;;-70
2022/09/06 20:53:49;;;;;;;;;;;;;;;22.73;45.80371;101277.4;;;;-70
2022/09/06 20:58:50;;;;;;;;;;;;;;;22.65;45.81836;101254.7;;;;-72
2022/09/06 21:03:51;;;;;;;;;;;;;;;22.61;46.07813;101255.9;;;;-74
2022/09/06 21:08:49;;;;;;;;;;;;;;;22.54;46.18652;101277.4;;;;-72
2022/09/06 21:13:50;;;;;;;;;;;;;;;22.46;46.31641;101267.5;;;;-71
2022/09/06 21:18:52;;;;;;;;;;;;;;;22.35;46.38574;101269.2;;;;-71
2022/09/06 21:21:00;;;;;;;3.2;1.4;;;;;;;;;;;;;-72
2022/09/06 21:23:51;;;;;;;;;;;;;;;22.25;46.55957;101290.5;;;;-73
2022/09/06 21:28:49;;;;;;;;;;;;;;;22.17;46.6084;101326.7;;;;-75
2022/09/06 21:33:52;;;;;;;;;;;;;;;22.07;46.70117;101331;;;;-76
2022/09/06 21:38:49;;;;;;;;;;;;;;;21.99;46.97754;101343.7;;;;-76
2022/09/06 21:43:48;;;;;;;;;;;;;;;21.93;46.99512;101350.9;;;;-77
2022/09/06 21:48:49;;;;;;;;;;;;;;;21.86;47.08008;101374.7;;;;-75
2022/09/06 21:50:59;;;;;;;2.5;1.3;;;;;;;;;;;;;-76
2022/09/06 21:53:49;;;;;;;;;;;;;;;21.82;47.27051;101417.8;;;;-76
2022/09/06 22:21:06;;;;;;;7.5;1.7;;;;;;;;;;;;;-77
2022/09/06 22:51:04;;;;;;;6.6;2.1;;;;;;;;;;;;;-80
2022/09/06 23:21:11;;;;;;;5.5;1.7;;;;;;;;;;;;;-79
2022/09/06 23:51:09;;;;;;;7.3;1.7;;;;;;;;;;;;;-78
